createdAt,value
2022-11-24T00:01:16.500Z,52.93
2022-11-24T00:04:33.797Z,54.43
2022-11-24T00:07:50.600Z,50.05
2022-11-24T00:11:13.521Z,52.15
2022-11-24T00:14:29.702Z,51.85
2022-11-24T00:17:45.890Z,51.78
2022-11-24T00:21:03.194Z,50.48
2022-11-24T00:24:20.752Z,53.15
2022-11-24T00:27:36.944Z,50.18
2022-11-24T00:30:53.211Z,52.68
2022-11-24T00:34:12.495Z,46.23
2022-11-24T00:40:42.646Z,45.20
2022-11-24T00:43:59.115Z,45.03
2022-11-24T00:47:15.923Z,42.28
2022-11-24T00:50:32.248Z,44.95
2022-11-24T00:53:49.102Z,44.73
2022-11-24T00:57:05.812Z,44.95
2022-11-24T01:00:24.474Z,43.80
2022-11-24T01:03:41.275Z,44.17
2022-11-24T01:06:57.817Z,41.85
2022-11-24T01:10:16.008Z,41.23
2022-11-24T01:13:32.165Z,45.55
2022-11-24T01:16:48.431Z,46.83
2022-11-24T01:20:05.563Z,44.63
2022-11-24T01:23:21.828Z,41.80
2022-11-24T01:26:37.959Z,42.33
2022-11-24T01:29:54.497Z,45.33
2022-11-24T01:33:10.734Z,44.45
2022-11-24T01:36:28.919Z,41.18
2022-11-24T01:39:45.073Z,43.95
2022-11-24T01:43:01.971Z,42.35
2022-11-24T01:46:25.314Z,43.88
2022-11-24T01:49:48.168Z,42.13
2022-11-24T01:53:06.135Z,47.10
2022-11-24T01:56:23.154Z,43.58
2022-11-24T01:59:40.533Z,44.90
2022-11-24T02:02:56.874Z,47.50
2022-11-24T02:06:17.884Z,45.50
2022-11-24T02:09:38.762Z,46.08
2022-11-24T02:12:59.680Z,49.58
2022-11-24T02:16:19.203Z,50.23
2022-11-24T02:19:46.554Z,46.90
2022-11-24T02:23:07.709Z,43.93
2022-11-24T02:26:32.374Z,48.75
2022-11-24T02:29:50.443Z,49.23
2022-11-24T02:33:07.267Z,48.78
2022-11-24T02:36:23.618Z,47.65
2022-11-24T02:39:39.889Z,49.68
2022-11-24T02:42:57.692Z,51.00
2022-11-24T02:46:15.183Z,46.73
2022-11-24T02:49:33.416Z,45.80
2022-11-24T02:52:49.858Z,47.63
2022-11-24T02:56:06.380Z,51.80
2022-11-24T02:59:22.554Z,47.73
2022-11-24T03:02:39.472Z,44.00
2022-11-24T03:05:56.000Z,44.93
2022-11-24T03:09:15.248Z,44.13
2022-11-24T03:12:31.346Z,46.68
2022-11-24T03:15:48.720Z,42.55
2022-11-24T03:19:05.099Z,43.15
2022-11-24T03:22:21.864Z,41.05
2022-11-24T03:25:37.985Z,41.03
2022-11-24T03:28:55.288Z,40.05
2022-11-24T03:32:11.966Z,40.90
2022-11-24T03:35:28.999Z,37.00
2022-11-24T03:38:45.480Z,40.85
2022-11-24T03:42:01.702Z,38.63
2022-11-24T03:45:44.877Z,38.70
2022-11-24T03:48:38.298Z,36.08
2022-11-24T03:51:54.341Z,35.45
2022-11-24T03:55:11.274Z,37.20
2022-11-24T03:58:30.294Z,34.53
2022-11-24T04:01:46.760Z,34.73
2022-11-24T04:05:02.988Z,31.05
2022-11-24T04:08:19.702Z,34.80
2022-11-24T04:11:50.088Z,34.13
2022-11-24T04:15:06.291Z,33.43
2022-11-24T04:18:23.286Z,32.13
2022-11-24T04:21:39.852Z,36.58
2022-11-24T04:24:56.063Z,34.60
2022-11-24T04:28:12.877Z,36.38
2022-11-24T04:31:29.215Z,37.50
2022-11-24T04:34:46.679Z,37.15
2022-11-24T04:38:09.018Z,32.95
2022-11-24T04:41:25.428Z,33.93
2022-11-24T04:44:41.658Z,32.58
2022-11-24T04:47:58.284Z,32.83
2022-11-24T04:51:16.072Z,35.18
2022-11-24T04:54:32.707Z,33.73
2022-11-24T04:57:49.310Z,30.38
2022-11-24T05:01:05.668Z,29.60
2022-11-24T05:04:23.795Z,30.95
2022-11-24T05:07:40.265Z,30.23
2022-11-24T05:10:56.674Z,32.18
2022-11-24T05:14:13.090Z,32.25
2022-11-24T05:17:29.422Z,32.60
2022-11-24T05:20:46.039Z,35.43
2022-11-24T05:24:02.393Z,33.18
2022-11-24T05:27:19.389Z,33.03
2022-11-24T05:30:36.105Z,37.15
2022-11-24T05:33:52.415Z,34.45
2022-11-24T05:37:09.098Z,36.30
2022-11-24T05:40:26.312Z,33.30
2022-11-24T05:43:43.486Z,35.63
2022-11-24T05:46:59.889Z,37.00
2022-11-24T05:50:18.851Z,35.88
2022-11-24T05:53:35.354Z,39.13
2022-11-24T05:56:51.525Z,38.45
2022-11-24T06:00:08.881Z,36.50
2022-11-24T06:03:31.087Z,41.03
2022-11-24T06:06:47.305Z,43.90
2022-11-24T06:10:03.564Z,41.80
2022-11-24T06:13:20.213Z,46.95
2022-11-24T06:16:37.266Z,45.43
2022-11-24T06:19:55.545Z,50.85
2022-11-24T06:23:11.904Z,51.98
2022-11-24T06:26:28.574Z,56.45
2022-11-24T06:29:44.909Z,54.93
2022-11-24T06:33:04.510Z,55.18
2022-11-24T06:42:59.174Z,58.20
2022-11-24T06:46:15.786Z,58.45
2022-11-24T06:49:33.854Z,64.20
2022-11-24T06:52:50.310Z,65.75
2022-11-24T06:56:15.646Z,63.23
2022-11-24T06:59:30.105Z,61.85
2022-11-24T07:02:46.855Z,62.23
2022-11-24T07:06:07.723Z,62.30
2022-11-24T07:09:24.858Z,62.63
2022-11-24T07:12:44.853Z,67.03
2022-11-24T07:16:01.315Z,68.35
2022-11-24T07:19:24.406Z,71.95
2022-11-24T07:25:51.292Z,66.30
2022-11-24T07:29:07.838Z,71.23
2022-11-24T07:32:24.350Z,69.30
2022-11-24T07:35:41.324Z,69.03
2022-11-24T07:38:58.093Z,60.58
2022-11-24T07:42:14.894Z,55.28
2022-11-24T07:45:32.587Z,57.10
2022-11-24T07:48:49.495Z,58.85
2022-11-24T07:52:06.059Z,55.63
2022-11-24T07:55:23.821Z,54.53
2022-11-24T07:58:42.687Z,59.58
2022-11-24T08:01:59.262Z,55.68
2022-11-24T08:05:16.753Z,59.53
2022-11-24T08:08:34.111Z,60.50
2022-11-24T08:11:50.681Z,55.53
2022-11-24T08:15:11.168Z,57.70
2022-11-24T08:18:28.940Z,57.20
2022-11-24T08:21:45.662Z,53.50
2022-11-24T08:25:02.242Z,54.70
2022-11-24T08:28:20.064Z,56.13
2022-11-24T08:31:37.963Z,60.95
2022-11-24T08:34:59.707Z,57.28
2022-11-24T08:38:13.284Z,61.68
2022-11-24T08:41:30.087Z,69.28
2022-11-24T08:44:46.678Z,65.00
2022-11-24T08:48:05.142Z,70.08
2022-11-24T08:51:25.005Z,72.85
2022-11-24T08:54:41.562Z,72.60
2022-11-24T08:57:58.215Z,71.83
2022-11-24T09:01:18.429Z,71.95
2022-11-24T09:04:35.530Z,71.55
2022-11-24T09:07:52.676Z,72.23
2022-11-24T09:11:12.501Z,67.13
2022-11-24T09:14:29.693Z,71.85
2022-11-24T09:17:47.112Z,62.90
2022-11-24T09:21:09.849Z,66.78
2022-11-24T09:24:26.859Z,60.65
2022-11-24T09:27:46.665Z,57.50
2022-11-24T09:31:05.617Z,53.98
2022-11-24T09:34:24.186Z,58.70
2022-11-24T09:37:44.135Z,57.93
2022-11-24T09:41:02.236Z,53.73
2022-11-24T09:44:51.395Z,55.23
2022-11-24T09:48:13.418Z,49.90
2022-11-24T09:51:33.365Z,50.48
2022-11-24T09:54:54.030Z,46.93
2022-11-24T09:58:26.822Z,50.48
2022-11-24T10:01:46.723Z,47.10
2022-11-24T10:05:03.040Z,46.15
2022-11-24T10:08:31.625Z,40.88
2022-11-24T10:11:52.592Z,41.80
2022-11-24T10:15:34.297Z,47.43
2022-11-24T10:19:05.625Z,49.05
2022-11-24T10:22:37.121Z,41.43
2022-11-24T10:25:57.775Z,44.33
2022-11-24T10:29:24.881Z,41.58
2022-11-24T10:32:46.038Z,41.65
2022-11-24T10:36:07.114Z,44.20
2022-11-24T10:39:29.152Z,42.60
2022-11-24T10:42:48.080Z,49.53
2022-11-24T10:46:08.611Z,48.85
2022-11-24T10:49:31.472Z,49.40
2022-11-24T10:52:52.597Z,52.00
2022-11-24T10:56:13.238Z,59.53
2022-11-24T10:59:43.062Z,64.40
2022-11-24T11:03:15.125Z,68.80
2022-11-24T11:06:37.718Z,68.60
2022-11-24T11:09:55.259Z,76.33
2022-11-24T11:13:30.524Z,79.85
2022-11-24T11:16:51.537Z,81.40
2022-11-24T11:20:19.711Z,86.10
2022-11-24T11:23:40.617Z,93.85
2022-11-24T11:27:01.695Z,83.88
2022-11-24T11:34:05.473Z,98.50
2022-11-24T11:37:22.578Z,91.43
2022-11-24T11:40:40.779Z,92.48
2022-11-24T11:44:03.540Z,97.93
2022-11-24T11:47:29.588Z,92.20
2022-11-24T11:54:20.532Z,98.13
2022-11-24T11:57:41.662Z,95.70
2022-11-24T12:01:03.536Z,101.95
2022-11-24T12:04:40.678Z,101.15
2022-11-24T12:08:17.554Z,100.40
2022-11-24T12:11:39.440Z,100.20
2022-11-24T12:15:07.368Z,97.70
2022-11-24T12:18:57.021Z,104.68
2022-11-24T12:22:04.370Z,105.48
2022-11-24T12:25:32.791Z,104.98
2022-11-24T12:28:56.927Z,109.95
2022-11-24T12:32:24.230Z,102.50
2022-11-24T12:35:44.796Z,99.43
2022-11-24T12:39:10.466Z,102.73
2022-11-24T12:42:36.033Z,101.28
2022-11-24T12:46:00.124Z,95.33
2022-11-24T12:49:25.431Z,100.13
2022-11-24T12:52:46.429Z,96.73
2022-11-24T12:56:07.125Z,96.30
2022-11-24T12:59:36.120Z,91.23
2022-11-24T13:03:11.300Z,91.25
2022-11-24T13:06:33.678Z,112.28
2022-11-24T13:10:30.151Z,91.35
2022-11-24T13:20:30.972Z,91.28
2022-11-24T13:23:47.988Z,91.43
2022-11-24T13:27:36.955Z,89.75
2022-11-24T13:31:25.353Z,87.30
2022-11-24T13:35:15.676Z,83.58
2022-11-24T13:38:59.044Z,82.78
2022-11-24T13:42:43.250Z,81.73
2022-11-24T13:45:59.112Z,84.13
2022-11-24T13:49:25.916Z,81.85
2022-11-24T13:53:13.399Z,84.85
2022-11-24T13:56:37.512Z,84.40
2022-11-24T13:59:54.176Z,75.35
2022-11-24T14:03:19.211Z,78.85
2022-11-24T14:06:41.881Z,69.23
2022-11-24T14:10:02.432Z,48.98
2022-11-24T14:13:37.868Z,40.78
2022-11-24T14:16:54.915Z,41.55
2022-11-24T14:20:24.956Z,40.15
2022-11-24T14:23:46.168Z,37.60
2022-11-24T14:27:02.704Z,29.25
2022-11-24T14:30:30.934Z,27.93
2022-11-24T14:33:47.500Z,22.55
2022-11-24T14:37:05.655Z,20.48
2022-11-24T14:40:49.197Z,20.18
2022-11-24T14:44:24.600Z,18.10
2022-11-24T14:47:42.946Z,17.75
2022-11-24T14:51:04.200Z,20.43
2022-11-24T14:54:27.051Z,20.10
2022-11-24T14:57:46.840Z,18.60
2022-11-24T15:01:31.447Z,17.00
2022-11-24T15:05:04.112Z,18.53
2022-11-24T15:08:23.429Z,19.30
2022-11-24T15:11:43.020Z,18.98
2022-11-24T15:15:04.475Z,17.53
2022-11-24T15:18:41.236Z,18.18
2022-11-24T15:21:59.157Z,18.10
2022-11-24T15:25:43.682Z,18.08
2022-11-24T15:29:00.208Z,17.93
2022-11-24T15:32:25.174Z,17.50
2022-11-24T15:35:42.393Z,15.95
2022-11-24T15:39:00.222Z,18.28
2022-11-24T15:42:21.639Z,15.88
2022-11-24T15:45:37.960Z,15.80
2022-11-24T15:48:54.344Z,15.95
2022-11-24T15:52:14.834Z,18.48
2022-11-24T15:55:32.094Z,18.35
2022-11-24T15:58:52.602Z,19.88
2022-11-24T16:02:11.660Z,21.23
2022-11-24T16:05:28.002Z,19.45
2022-11-24T16:08:44.281Z,20.60
2022-11-24T16:12:00.527Z,23.63
2022-11-24T16:15:18.546Z,23.25
2022-11-24T16:18:36.226Z,23.85
2022-11-24T16:21:54.910Z,22.35
2022-11-24T16:25:12.100Z,22.70
2022-11-24T16:28:28.578Z,25.38
2022-11-24T16:31:46.837Z,23.70
2022-11-24T16:35:03.178Z,20.05
2022-11-24T16:38:24.207Z,23.60
2022-11-24T16:41:40.743Z,21.35
2022-11-24T16:44:57.261Z,21.77
2022-11-24T16:48:14.252Z,21.43
2022-11-24T16:51:34.758Z,22.28
2022-11-24T16:54:53.025Z,20.50
2022-11-24T16:58:10.538Z,20.45
2022-11-24T17:01:27.546Z,21.18
2022-11-24T17:04:44.460Z,20.80
2022-11-24T17:08:09.419Z,24.58
2022-11-24T17:11:33.690Z,23.85
2022-11-24T17:15:24.617Z,23.73
2022-11-24T17:18:30.395Z,26.55
2022-11-24T17:25:00.927Z,24.50
2022-11-24T17:28:18.239Z,24.98
2022-11-24T17:31:41.026Z,27.08
2022-11-24T17:34:57.542Z,23.80
2022-11-24T17:38:14.201Z,24.25
2022-11-24T17:41:30.996Z,26.83
2022-11-24T17:44:47.480Z,24.08
2022-11-24T17:48:04.494Z,25.10
2022-11-24T17:51:23.413Z,24.30
2022-11-24T17:54:46.482Z,22.48
2022-11-24T17:57:57.999Z,23.83
2022-11-24T18:01:14.898Z,27.30
2022-11-24T18:04:31.540Z,25.25
2022-11-24T18:07:50.672Z,26.70
2022-11-24T18:11:13.211Z,23.28
2022-11-24T18:14:29.520Z,28.10
2022-11-24T18:17:46.092Z,25.48
2022-11-24T18:21:05.707Z,25.20
2022-11-24T18:27:37.099Z,24.55
2022-11-24T18:30:53.729Z,25.93
2022-11-24T18:34:10.577Z,24.68
2022-11-24T18:37:26.896Z,23.95
2022-11-24T18:40:45.566Z,25.60
2022-11-24T18:44:03.141Z,22.13
2022-11-24T18:47:20.980Z,24.55
2022-11-24T18:50:38.741Z,25.08
2022-11-24T18:53:59.336Z,26.50
2022-11-24T18:57:15.989Z,30.58
2022-11-24T19:00:34.207Z,26.70
2022-11-24T19:03:57.563Z,27.08
2022-11-24T19:07:15.991Z,31.98
2022-11-24T19:10:32.317Z,33.15
2022-11-24T19:13:49.633Z,37.05
2022-11-24T19:17:08.116Z,35.40
2022-11-24T19:20:25.015Z,33.53
2022-11-24T19:23:43.740Z,35.10
2022-11-24T19:27:00.579Z,39.60
2022-11-24T19:30:20.869Z,32.50
2022-11-24T19:33:40.536Z,37.35
2022-11-24T19:36:57.330Z,33.75
2022-11-24T19:40:16.989Z,33.78
2022-11-24T19:43:38.315Z,35.03
2022-11-24T19:46:54.921Z,32.95
2022-11-24T19:50:12.965Z,31.50
2022-11-24T19:53:30.800Z,34.50
2022-11-24T19:56:47.721Z,32.58
2022-11-24T20:00:04.631Z,34.00
2022-11-24T20:03:22.421Z,31.95
2022-11-24T20:06:43.669Z,30.48
2022-11-24T20:10:07.717Z,31.30
2022-11-24T20:13:23.403Z,29.08
2022-11-24T20:16:44.307Z,32.45
2022-11-24T20:20:01.234Z,33.18
2022-11-24T20:23:18.814Z,27.03
2022-11-24T20:26:38.212Z,29.15
2022-11-24T20:29:57.067Z,27.85
2022-11-24T20:33:16.566Z,27.30
2022-11-24T20:36:36.914Z,27.68
2022-11-24T20:39:53.475Z,30.13
2022-11-24T20:43:10.372Z,31.08
2022-11-24T20:46:31.379Z,26.75
2022-11-24T20:53:01.384Z,30.05
2022-11-24T20:56:21.140Z,31.93
2022-11-24T20:59:37.666Z,28.65
2022-11-24T21:02:54.178Z,32.30
2022-11-24T21:06:11.031Z,30.45
2022-11-24T21:09:28.343Z,30.65
2022-11-24T21:12:45.013Z,32.58
2022-11-24T21:16:02.366Z,34.15
2022-11-24T21:19:22.289Z,36.65
2022-11-24T21:22:39.840Z,36.23
2022-11-24T21:25:55.927Z,42.18
2022-11-24T21:29:13.837Z,46.60
2022-11-24T21:32:30.207Z,48.28
2022-11-24T21:35:47.260Z,47.95
2022-11-24T21:39:05.815Z,49.98
2022-11-24T21:42:22.449Z,46.65
2022-11-24T21:45:40.974Z,45.93
2022-11-24T21:48:57.748Z,47.73
2022-11-24T21:52:14.350Z,46.70
2022-11-24T21:55:30.831Z,46.65
2022-11-24T21:58:52.186Z,45.75
2022-11-24T22:02:12.896Z,44.53
2022-11-24T22:05:26.601Z,46.58
2022-11-24T22:08:45.388Z,43.00
2022-11-24T22:12:01.568Z,46.65
2022-11-24T22:15:19.103Z,46.53
2022-11-24T22:18:38.507Z,42.75
2022-11-24T22:28:24.177Z,43.15
2022-11-24T22:31:41.785Z,49.58
2022-11-24T22:34:57.892Z,49.83
2022-11-24T22:38:14.265Z,49.78
2022-11-24T22:41:30.564Z,50.40
2022-11-24T22:44:46.757Z,49.80
2022-11-24T22:48:04.776Z,51.75
2022-11-24T22:51:24.140Z,48.65
2022-11-24T22:54:40.383Z,55.28
2022-11-24T22:57:57.453Z,56.78
2022-11-24T23:01:19.911Z,62.58
2022-11-24T23:04:36.553Z,64.05
2022-11-24T23:07:53.050Z,68.58
2022-11-24T23:11:19.878Z,71.68
2022-11-24T23:14:36.475Z,72.40
2022-11-24T23:17:53.431Z,72.05
2022-11-24T23:21:16.782Z,74.88
2022-11-24T23:24:33.231Z,81.05
2022-11-24T23:27:49.813Z,97.10
2022-11-24T23:31:12.290Z,104.38
2022-11-24T23:34:30.979Z,109.05
2022-11-24T23:38:06.531Z,114.93
2022-11-24T23:41:11.532Z,120.48
2022-11-24T23:44:27.657Z,128.15
2022-11-24T23:47:44.226Z,121.70
2022-11-24T23:51:00.636Z,122.10
2022-11-24T23:54:17.648Z,119.90
2022-11-24T23:57:33.819Z,108.15
